Du har inga inställningar för hoppväder.nu

Hoppväder.nu

Senast uppdaterat 10:15

UTC-tid

2019-02-18 kl. 09:15


Sol och måne

Solen går upp 7:28 och går ner 16:59 (beräknade cirkatider)
Nästa fullmåne blir imorgon!

METAR

ESOE (Örebro)
(25 minuter sedan)
ESOE 180850Z 20010KT 9999 BKN009 06/05 Q1013=



ESOK (Karlstad)
(25 minuter sedan)
ESOK 180850Z 19010KT 3000 BR OVC007 04/04 Q1011=



ESGR (Skövde)
(25 minuter sedan)
ESGR 180850Z AUTO 18011KT 7000 BR NCD 06/04 Q1013=



ESSD (Borlänge)
(25 minuter sedan)
ESSD 180850Z 19007KT 8000 BR OVC007 04/04 Q1010=



ESOW (Västerås)
(25 minuter sedan)
ESOW 180850Z 17011KT 9999 FEW007 BKN013 03/02 Q1014 RWY 19 DAMP 51-100 PCT BA GOOD=



TAF

ESOE (Örebro)
(45 minuter sedan)
ESOE 180830Z 1809/1818 18008KT 9999 OVC015 PROB40 1809/1812 BKN008=



ESOK (Karlstad)
(45 minuter sedan)
ESOK 180830Z 1809/1818 18008KT 8000 BKN010 TEMPO 1809/1818 3000 BR BKN008=



ESGR (Skövde)
ESGR



ESSD (Borlänge)
(45 minuter sedan)
ESSD 180830Z 1809/1816 18006KT 9999 SCT009 OVC015 TEMPO 1809/1815 BKN009=



ESOW (Västerås)
(45 minuter sedan)
ESOW 180830Z 1809/1818 18010KT 9999 SCT005 BKN015 PROB40 1809/1812 BKN008=





Kodnycklar till TAF och METAR






LHP

(Örebro är område G2a i Södra delen)

ÖVERSIKT FÖR OMRÅDE B UTFÄRDAD 180453
GÄLLANDE DEN 18 FEBRUARI 2019 MELLAN 05 OCH 13 UTC


Väderöversikt

Mild och fuktig luftström från sydväst

Sikt under 5 kilometer eller molnbas under 1000 fot
05-13UTC: I hela området


Måttlig eller svår isbildning
09-11UTC: Område Nordvästra delen
11-13UTC: Område Nordvästra delen och Norra delen


Måttlig eller svår turbulens
Väntas inte förekomma under perioden



PROGNOS FÖR OMRÅDE B DEN SÖDRA DELEN UTFÄRDAD 180453
GÄLLANDE DEN 18 FEBRUARI 2019 MELLAN 05 OCH 13 UTC

Måttlig eller svår turbulens
05-13UTC: I hela området: Väntas inte förekomma under perioden

Måttlig eller svår isbildning
05-13UTC: I hela området: Väntas inte förekomma under perioden

Sikt/Väder/Moln
05-09UTC: Område G1a,G1b,G2a,G3a,G3b,G3d: Sikt <1.5km - >8km i dimma, höga dimbankar. Molnbas <500ft - >2000ft.
Område G1c,G2b,G2c: Sikt >8km, lokalt <1.5km i dimma. Molnbas <500ft, lokalt >2000ft.
Område G3c: Sikt <1.5km i dimma, lokalt 3km - 5km i höga dimbankar. Molnbas <500ft, lokalt 500ft - 1000ft.

09-11UTC: Område G1a,G1c,G1b,G2b,G3a: Sikt 3km - >8km i dis. Molnbas <500ft - >2000ft.
Område G2c: Sikt >8km, lokalt 3km - 5km i dis. Molnbas <500ft, lokalt >2000ft.

09-13UTC: Område G2a: Sikt <1.5km - >8km i dis, dimma, höga dimbankar. Molnbas <500ft - >2000ft.
Område G3c,G3b,G3d: Sikt >8km. Molnbas >2000ft, lokalt 1500ft - 2000ft.

11-13UTC: Område G1a,G1c,G1b,G2b,G3a: Sikt 5km - >8km i dis. Molnbas <500ft - >2000ft.
Område G2c: Sikt >8km, lokalt 5km - 8km i dis. Molnbas <500ft, lokalt >2000ft.


Molnöversida
05-07UTC: Område G1a,G2c: Molnöversida 4000ft.

05-13UTC: Område G1c,G1b,G3a,G3c,G3b,G3d: Molnöversida 4000ft.
Område G2b,G2a: Molnöversida > FL125.

07-13UTC: Område G1a,G2c: Molnöversida > FL125.


CB/TCU Moln
05-13UTC: I hela området: Väntas inte förekomma under perioden

Nollgradersisoterm
05-09UTC: Noll grader FL065 - FL080, Minusgrader 2500ft - 3500ft.
09-11UTC: Noll grader FL050 - FL080, Minusgrader 2500ft - 3500ft.
11-13UTC: Noll grader 3000ft - FL080, Minusgrader 2500ft - 3500ft.

Vind vid marken
05-07UTC: Område G3a: S/3-6 knop.
Område G2b: S/4-11 knop, byar upp till 19 knop.
Område G3c: SO-S/2-10 knop, byar upp till 18 knop.
Område G1b: S/3-14 knop, byar upp till 17 knop.
Område G3b: S/2-11 knop, byar upp till 17 knop.
Område G1a: S/3-16 knop, byar upp till 21 knop.
Område G2c: S/4-10 knop, byar upp till 19 knop.
Område G1c: S/3-12 knop, byar upp till 15 knop.
Område G2a: S/2-9 knop, byar upp till 17 knop.
Område G3d: S/2-13 knop, byar upp till 22 knop.

07-09UTC: Område G1b: S/5-18 knop, byar upp till 24 knop.
Område G3c: S/3-14 knop, byar upp till 25 knop.
Område G3d: S/3-15 knop, byar upp till 25 knop.
Område G3b: S/3-14 knop, byar upp till 22 knop.
Område G3a: S/4-8 knop, byar upp till 18 knop.
Område G1a: S/4-21 knop, byar upp till 27 knop.
Område G1c: S/4-15 knop, byar upp till 19 knop.
Område G2b: S/5-9 knop, byar upp till 17 knop.
Område G2c: S/6-8 knop, byar upp till 17 knop.
Område G2a: S/3-8 knop, byar upp till 20 knop.

09-11UTC: Område G2b: S-SV/5-12 knop, byar upp till 23 knop.
Område G3a: S/6-12 knop, byar upp till 26 knop.
Område G3c: S-SV/2-19 knop, byar upp till 30 knop.
Område G1a: S-SV/7-21 knop, byar upp till 28 knop.
Område G1b: S/6-24 knop, byar upp till 30 knop.
Område G2c: S-SV/7-12 knop, byar upp till 26 knop.
Område G3b: S-SV/3-14 knop, byar upp till 23 knop.
Område G3d: S-SV/5-18 knop, byar upp till 30 knop.
Område G1c: S/7-24 knop, byar upp till 29 knop.
Område G2a: S-SV/2-9 knop, byar upp till 20 knop.

11-13UTC: Område G3c: S-SV/1-16 knop, byar upp till 29 knop.
Område G3a: S-SV/5-12 knop, byar upp till 28 knop.
Område G1b: S-SV/5-25 knop, byar upp till 32 knop.
Område G2c: S-SV/7-12 knop, byar upp till 28 knop.
Område G2a: S-SV/2-9 knop, byar upp till 17 knop.
Område G3d: S-SV/5-17 knop, byar upp till 30 knop.
Område G1c: S-SV/7-23 knop, byar upp till 30 knop.
Område G1a: S-SV/8-25 knop, byar upp till 32 knop.
Område G2b: S-SV/4-11 knop, byar upp till 23 knop.
Område G3b: S-SV/2-14 knop, byar upp till 21 knop.


Genomsnittlig vind och temperatur för området
2000ft:
05-07UTC: 230/22kt +2.
07-09UTC: 220/26kt +2.
09-11UTC: 220/29kt +3.
11-13UTC: 230/28kt +3.

FL50:
05-07UTC: 240/28kt +3.
07-09UTC: 240/30kt +4.
09-11UTC: 240/32kt +4.
11-13UTC: 240/32kt +3.

FL100:
05-07UTC: 250/32kt -6.
07-09UTC: 250/35kt -6.
09-11UTC: 250/36kt -6.
11-13UTC: 240/37kt -6.

Lägsta QNH
1009 hPa.

OBS! endast utbredd måttlig eller svår isbildning och turbulens prognostiseras i LLF.
Avsaknad av isbildning och turbulens i prognosen utesluter inte förekomst av lätt isbildning och turbulens.
För indikation på lätt isbildning, var vänlig kontrollera om prognosen för molntopp ligger högre än nollgradersisotermen.
Förekomst av TCU eller CB medför alltid en risk för måttlig eller svår isbildning och turbulens även om det inte framgår explicit av prognosen.





Spotting

Hur fungerar spotthjälpen och Vindkartan?

Markvind är ca 0 m/s.
Vind på 600 m ca 15 m/s.
Vind på 1500 m ca 16 m/s.
Vind på 3000 m ca 19 m/s.
FXB flyger ca 17 m/s över marken på finalen.
Du driver ca 833 m bakåt i frifall. (1111 m)
Lämplig spot är 31 sekunder eller 542 m efter gropen.
(47 s eller 822 m)
För små grupper eller ensamhoppare bör man vänta 9-12 sekunder mellan grupperna.
För större grupper bör man vänta 17-21 sekunder mellan grupperna.


Vindkartan

Senast uppdaterad 10:15




All data kommer från LFV.se